createdAt,value
2022-10-18T00:00:05.856Z,101444.72
2022-10-18T00:02:32.408Z,101451.53
2022-10-18T00:04:58.892Z,101463.50
2022-10-18T00:07:25.350Z,101447.84
2022-10-18T00:09:51.796Z,101455.03
2022-10-18T00:12:18.285Z,101456.13
2022-10-18T00:14:44.765Z,101453.78
2022-10-18T00:17:11.200Z,101460.94
2022-10-18T00:19:37.622Z,101455.69
2022-10-18T00:22:04.283Z,101454.72
2022-10-18T00:24:30.771Z,101460.59
2022-10-18T00:26:57.214Z,101462.44
2022-10-18T00:29:23.688Z,101466.75
2022-10-18T00:31:50.115Z,101469.56
2022-10-18T00:34:16.866Z,101459.69
2022-10-18T00:36:45.117Z,101466.81
2022-10-18T00:39:17.434Z,101463.50
2022-10-18T00:41:44.355Z,101469.59
2022-10-18T00:44:10.695Z,101463.50
2022-10-18T00:46:39.601Z,101455.94
2022-10-18T00:49:19.955Z,101457.53
2022-10-18T00:51:49.287Z,101473.44
2022-10-18T00:54:16.820Z,101455.47
2022-10-18T00:56:44.876Z,101453.28
2022-10-18T00:59:12.416Z,101457.69
2022-10-18T01:01:38.967Z,101456.59
2022-10-18T01:04:05.526Z,101458.72
2022-10-18T01:06:32.631Z,101448.66
2022-10-18T01:09:12.894Z,101445.72
2022-10-18T01:12:04.213Z,101451.38
2022-10-18T01:14:45.423Z,101441.56
2022-10-18T01:17:55.269Z,101448.00
2022-10-18T01:20:43.387Z,101443.38
2022-10-18T01:23:19.291Z,101449.44
2022-10-18T01:26:07.517Z,101439.84
2022-10-18T01:29:03.381Z,101446.59
2022-10-18T01:31:54.279Z,101453.09
2022-10-18T01:34:25.860Z,101461.38
2022-10-18T01:36:54.181Z,101459.72
2022-10-18T01:39:28.157Z,101467.75
2022-10-18T01:41:56.432Z,101464.63
2022-10-18T01:44:25.189Z,101452.13
2022-10-18T01:46:53.529Z,101455.69
2022-10-18T01:49:20.007Z,101441.50
2022-10-18T01:51:46.551Z,101453.25
2022-10-18T01:54:17.453Z,101451.00
2022-10-18T01:57:01.318Z,101438.47
2022-10-18T01:59:39.436Z,101440.06
2022-10-18T02:02:17.994Z,101446.47
2022-10-18T02:04:52.095Z,101437.94
2022-10-18T02:07:32.941Z,101429.13
2022-10-18T02:10:09.158Z,101436.56
2022-10-18T02:12:37.514Z,101445.78
2022-10-18T02:15:05.391Z,101447.91
2022-10-18T02:17:32.339Z,101455.81
2022-10-18T02:20:00.254Z,101452.38
2022-10-18T02:22:29.830Z,101461.06
2022-10-18T02:24:57.633Z,101453.72
2022-10-18T02:27:24.099Z,101451.47
2022-10-18T02:29:50.884Z,101464.84
2022-10-18T02:32:35.171Z,101487.72
2022-10-18T02:35:07.877Z,101481.81
2022-10-18T02:37:38.100Z,101488.50
2022-10-18T02:40:07.165Z,101482.94
2022-10-18T02:42:38.982Z,101476.94
2022-10-18T02:45:06.556Z,101481.13
2022-10-18T02:47:33.250Z,101491.88
2022-10-18T02:49:59.949Z,101488.09
2022-10-18T02:52:26.371Z,101497.47
2022-10-18T02:54:52.794Z,101497.19
2022-10-18T02:57:19.301Z,101499.84
2022-10-18T02:59:45.735Z,101496.72
2022-10-18T03:02:12.184Z,101508.22
2022-10-18T03:04:38.687Z,101503.75
2022-10-18T03:07:05.141Z,101501.28
2022-10-18T03:09:31.631Z,101498.19
2022-10-18T03:11:58.100Z,101502.19
2022-10-18T03:14:24.583Z,101498.19
2022-10-18T03:16:51.042Z,101492.81
2022-10-18T03:19:17.490Z,101487.50
2022-10-18T03:21:43.919Z,101502.69
2022-10-18T03:24:10.389Z,101499.03
2022-10-18T03:26:36.849Z,101502.25
2022-10-18T03:29:04.622Z,101495.72
2022-10-18T03:34:02.774Z,101506.47
2022-10-18T03:36:29.200Z,101504.16
2022-10-18T03:38:55.657Z,101490.19
2022-10-18T03:41:22.224Z,101492.84
2022-10-18T03:43:48.661Z,101495.50
2022-10-18T03:46:15.085Z,101506.91
2022-10-18T03:48:41.585Z,101513.16
2022-10-18T03:51:08.023Z,101512.78
2022-10-18T03:53:34.456Z,101526.25
2022-10-18T03:56:00.946Z,101522.50
2022-10-18T03:58:27.461Z,101519.09
2022-10-18T04:00:54.904Z,101511.22
2022-10-18T04:03:22.256Z,101526.03
2022-10-18T04:05:49.697Z,101530.38
2022-10-18T04:08:16.374Z,101530.38
2022-10-18T04:10:43.438Z,101527.56
2022-10-18T04:13:09.985Z,101524.16
2022-10-18T04:15:36.500Z,101531.84
2022-10-18T04:18:03.137Z,101535.88
2022-10-18T04:20:29.568Z,101530.22
2022-10-18T04:22:57.614Z,101533.91
2022-10-18T04:25:24.923Z,101541.00
2022-10-18T04:27:51.520Z,101523.19
2022-10-18T04:30:20.698Z,101529.47
2022-10-18T04:32:47.367Z,101538.00
2022-10-18T04:35:13.816Z,101542.56
2022-10-18T04:37:40.345Z,101541.78
2022-10-18T04:40:07.371Z,101553.38
2022-10-18T04:42:33.794Z,101564.41
2022-10-18T04:45:00.272Z,101567.13
2022-10-18T04:47:26.804Z,101564.41
2022-10-18T04:49:53.226Z,101553.78
2022-10-18T04:52:20.195Z,101540.84
2022-10-18T04:54:46.675Z,101532.53
2022-10-18T04:57:13.858Z,101527.06
2022-10-18T04:59:40.301Z,101532.38
2022-10-18T05:02:06.781Z,101548.31
2022-10-18T05:04:33.321Z,101559.09
2022-10-18T05:06:59.837Z,101583.94
2022-10-18T05:09:26.477Z,101597.19
2022-10-18T05:11:52.932Z,101595.66
2022-10-18T05:14:19.431Z,101591.44
2022-10-18T05:16:45.902Z,101575.88
2022-10-18T05:19:12.402Z,101583.41
2022-10-18T05:21:38.840Z,101562.69
2022-10-18T05:24:05.512Z,101555.56
2022-10-18T05:26:31.987Z,101556.03
2022-10-18T05:28:58.708Z,101555.00
2022-10-18T05:31:25.199Z,101569.47
2022-10-18T05:33:51.672Z,101581.94
2022-10-18T05:36:18.106Z,101581.78
2022-10-18T05:38:45.530Z,101577.59
2022-10-18T05:41:12.567Z,101581.63
2022-10-18T05:43:39.906Z,101581.78
2022-10-18T05:46:13.467Z,101587.88
2022-10-18T05:48:41.606Z,101601.31
2022-10-18T05:51:08.405Z,101594.00
2022-10-18T05:53:37.200Z,101580.00
2022-10-18T05:56:04.939Z,101595.84
2022-10-18T05:58:31.386Z,101592.88
2022-10-18T06:01:02.210Z,101582.97
2022-10-18T06:03:30.950Z,101579.53
2022-10-18T06:06:09.384Z,101586.66
2022-10-18T06:08:36.711Z,101583.72
2022-10-18T06:11:11.504Z,101582.13
2022-10-18T06:13:45.920Z,101583.31
2022-10-18T06:16:13.787Z,101592.56
2022-10-18T06:18:43.163Z,101588.63
2022-10-18T06:21:10.124Z,101607.34
2022-10-18T06:23:36.587Z,101599.63
2022-10-18T06:26:06.027Z,101599.69
2022-10-18T06:28:34.612Z,101601.75
2022-10-18T06:31:01.176Z,101605.25
2022-10-18T06:33:27.618Z,101610.66
2022-10-18T06:35:58.893Z,101617.19
2022-10-18T06:38:26.038Z,101616.63
2022-10-18T06:40:52.871Z,101616.19
2022-10-18T06:43:21.516Z,101613.88
2022-10-18T06:45:48.774Z,101623.19
2022-10-18T06:48:15.828Z,101612.44
2022-10-18T06:50:42.530Z,101614.03
2022-10-18T06:53:09.735Z,101612.53
2022-10-18T06:55:36.264Z,101619.03
2022-10-18T06:58:02.737Z,101616.53
2022-10-18T07:00:29.244Z,101622.47
2022-10-18T07:02:57.163Z,101624.56
2022-10-18T07:05:23.724Z,101620.81
2022-10-18T07:07:54.177Z,101617.91
2022-10-18T07:10:23.413Z,101618.25
2022-10-18T07:12:51.535Z,101619.03
2022-10-18T07:15:18.159Z,101616.22
2022-10-18T07:17:47.869Z,101619.81
2022-10-18T07:20:17.029Z,101631.34
2022-10-18T07:22:43.544Z,101639.06
2022-10-18T07:25:09.970Z,101634.94
2022-10-18T07:27:41.729Z,101627.06
2022-10-18T07:30:10.007Z,101629.72
2022-10-18T07:32:36.816Z,101630.34
2022-10-18T07:35:03.679Z,101638.72
2022-10-18T07:37:30.412Z,101641.47
2022-10-18T07:39:56.886Z,101640.63
2022-10-18T07:42:23.422Z,101634.47
2022-10-18T07:44:49.895Z,101646.38
2022-10-18T07:47:16.344Z,101647.38
2022-10-18T07:49:42.782Z,101655.75
2022-10-18T07:52:09.256Z,101662.84
2022-10-18T07:54:35.760Z,101656.13
2022-10-18T07:57:04.222Z,101656.47
2022-10-18T07:59:30.705Z,101655.19
2022-10-18T08:01:57.179Z,101642.94
2022-10-18T08:04:23.645Z,101656.50
2022-10-18T08:06:50.137Z,101660.84
2022-10-18T08:09:16.571Z,101649.84
2022-10-18T08:11:43.063Z,101649.25
2022-10-18T08:14:09.501Z,101650.31
2022-10-18T08:16:35.944Z,101649.38
2022-10-18T08:19:02.682Z,101635.28
2022-10-18T08:21:29.151Z,101638.91
2022-10-18T08:23:55.632Z,101641.81
2022-10-18T08:26:22.908Z,101631.03
2022-10-18T08:29:03.616Z,101628.47
2022-10-18T08:31:36.312Z,101629.41
2022-10-18T08:34:02.782Z,101633.59
2022-10-18T08:36:29.289Z,101622.97
2022-10-18T08:38:55.713Z,101626.75
2022-10-18T08:41:31.004Z,101627.00
2022-10-18T08:44:07.430Z,101614.75
2022-10-18T08:46:36.089Z,101613.06
2022-10-18T08:49:03.568Z,101620.25
2022-10-18T08:51:35.735Z,101615.47
2022-10-18T08:54:06.726Z,101611.59
2022-10-18T08:56:33.989Z,101613.88
2022-10-18T08:59:02.705Z,101616.91
2022-10-18T09:01:42.981Z,101622.88
2022-10-18T09:04:37.174Z,101629.41
2022-10-18T09:07:28.425Z,101610.75
2022-10-18T09:10:02.224Z,101611.41
2022-10-18T09:12:50.454Z,101614.25
2022-10-18T09:15:44.905Z,101616.75
2022-10-18T09:18:27.263Z,101625.31
2022-10-18T09:20:54.596Z,101620.84
2022-10-18T09:23:23.136Z,101612.88
2022-10-18T09:26:03.362Z,101614.31
2022-10-18T09:28:45.092Z,101609.97
2022-10-18T09:31:29.111Z,101615.19
2022-10-18T09:34:05.662Z,101613.69
2022-10-18T09:36:37.821Z,101616.00
2022-10-18T09:39:30.961Z,101614.63
2022-10-18T09:42:05.991Z,101601.41
2022-10-18T09:44:42.107Z,101602.78
2022-10-18T09:47:16.871Z,101606.19
2022-10-18T09:49:46.372Z,101605.34
2022-10-18T09:52:19.842Z,101584.66
2022-10-18T09:55:01.431Z,101589.06
2022-10-18T09:57:29.848Z,101579.00
2022-10-18T09:59:57.883Z,101587.66
2022-10-18T10:02:24.569Z,101599.66
2022-10-18T10:04:51.978Z,101597.06
2022-10-18T10:07:21.962Z,101598.41
2022-10-18T10:09:59.915Z,101590.59
2022-10-18T10:12:28.824Z,101600.28
2022-10-18T10:14:55.576Z,101586.97
2022-10-18T10:17:26.481Z,101585.69
2022-10-18T10:20:17.621Z,101589.16
2022-10-18T10:22:46.699Z,101590.28
2022-10-18T10:25:31.968Z,101580.44
2022-10-18T10:28:37.392Z,101595.34
2022-10-18T10:31:19.152Z,101593.44
2022-10-18T10:33:47.555Z,101590.63
2022-10-18T10:36:19.420Z,101589.41
2022-10-18T10:38:45.886Z,101599.25
2022-10-18T10:41:20.426Z,101593.28
2022-10-18T10:43:47.218Z,101583.41
2022-10-18T10:46:15.544Z,101592.19
2022-10-18T10:48:50.440Z,101588.53
2022-10-18T10:51:34.610Z,101586.28
2022-10-18T10:54:15.127Z,101583.97
2022-10-18T10:57:11.262Z,101577.78
2022-10-18T10:59:57.329Z,101578.69
2022-10-18T11:02:31.628Z,101580.69
2022-10-18T11:05:19.691Z,101587.81
2022-10-18T11:07:46.571Z,101582.16
2022-10-18T11:10:18.836Z,101580.63
2022-10-18T11:12:46.719Z,101574.94
2022-10-18T11:15:28.687Z,101573.41
2022-10-18T11:18:14.657Z,101571.25
2022-10-18T11:20:45.484Z,101557.19
2022-10-18T11:23:13.920Z,101552.06
2022-10-18T11:25:49.115Z,101554.88
2022-10-18T11:28:51.156Z,101550.88
2022-10-18T11:31:29.489Z,101551.59
2022-10-18T11:34:14.989Z,101557.44
2022-10-18T11:37:28.182Z,101564.34
2022-10-18T11:40:25.826Z,101554.78
2022-10-18T11:43:08.930Z,101553.41
2022-10-18T11:45:45.027Z,101556.34
2022-10-18T11:48:49.213Z,101544.78
2022-10-18T11:51:34.080Z,101533.97
2022-10-18T11:54:14.560Z,101536.25
2022-10-18T11:56:42.986Z,101537.44
2022-10-18T11:59:41.713Z,101531.66
2022-10-18T12:02:24.926Z,101518.97
2022-10-18T12:05:18.879Z,101509.34
2022-10-18T12:07:52.804Z,101515.75
2022-10-18T12:10:31.417Z,101508.97
2022-10-18T12:13:08.462Z,101501.38
2022-10-18T12:15:37.648Z,101496.84
2022-10-18T12:18:17.662Z,101498.34
2022-10-18T12:20:49.856Z,101490.47
2022-10-18T12:23:36.973Z,101489.19
2022-10-18T12:26:07.018Z,101478.94
2022-10-18T12:29:10.984Z,101480.88
2022-10-18T12:31:42.313Z,101479.75
2022-10-18T12:34:31.362Z,101485.66
2022-10-18T12:37:14.636Z,101478.16
2022-10-18T12:40:20.241Z,101485.25
2022-10-18T12:42:48.460Z,101480.94
2022-10-18T12:45:35.698Z,101479.91
2022-10-18T12:48:06.067Z,101476.09
2022-10-18T12:50:38.744Z,101476.78
2022-10-18T12:53:22.720Z,101482.34
2022-10-18T12:55:51.560Z,101478.25
2022-10-18T12:58:21.007Z,101469.69
2022-10-18T13:00:47.915Z,101460.94
2022-10-18T13:03:16.526Z,101453.88
2022-10-18T13:05:54.678Z,101450.44
2022-10-18T13:08:27.947Z,101468.59
2022-10-18T13:11:12.782Z,101470.47
2022-10-18T13:13:45.046Z,101465.16
2022-10-18T13:16:52.860Z,101457.03
2022-10-18T13:19:30.736Z,101446.94
2022-10-18T13:22:19.089Z,101453.78
2022-10-18T13:24:55.949Z,101451.38
2022-10-18T13:27:37.544Z,101451.22
2022-10-18T13:30:34.308Z,101449.63
2022-10-18T13:33:15.590Z,101452.91
2022-10-18T13:35:48.132Z,101447.94
2022-10-18T13:38:32.883Z,101459.91
2022-10-18T13:43:58.331Z,101456.69
2022-10-18T13:46:44.954Z,101454.38
2022-10-18T13:49:17.515Z,101450.94
2022-10-18T13:51:55.431Z,101449.91
2022-10-18T13:54:39.043Z,101440.41
2022-10-18T13:57:17.473Z,101448.91
2022-10-18T13:59:53.703Z,101449.09
2022-10-18T14:02:58.669Z,101449.81
2022-10-18T14:06:11.666Z,101453.75
2022-10-18T14:09:25.477Z,101444.25
2022-10-18T14:12:09.868Z,101441.75
2022-10-18T14:14:51.513Z,101437.59
2022-10-18T14:17:42.832Z,101433.13
2022-10-18T14:20:34.594Z,101432.19
2022-10-18T14:23:47.972Z,101423.03
2022-10-18T14:26:19.862Z,101416.59
2022-10-18T14:29:04.239Z,101415.41
2022-10-18T14:31:30.797Z,101405.75
2022-10-18T14:33:58.598Z,101414.75
2022-10-18T14:36:31.362Z,101406.94
2022-10-18T14:39:00.384Z,101397.56
2022-10-18T14:41:28.882Z,101396.72
2022-10-18T14:44:14.010Z,101391.44
2022-10-18T14:46:48.976Z,101388.13
2022-10-18T14:49:16.143Z,101379.25
2022-10-18T14:51:43.699Z,101381.72
2022-10-18T14:54:18.277Z,101386.56
2022-10-18T14:56:45.053Z,101382.47
2022-10-18T14:59:17.057Z,101387.13
2022-10-18T15:02:01.672Z,101397.31
2022-10-18T15:04:33.014Z,101395.47
2022-10-18T15:07:01.937Z,101404.38
2022-10-18T15:12:02.610Z,101392.19
2022-10-18T15:14:29.555Z,101373.09
2022-10-18T15:17:03.031Z,101373.88
2022-10-18T15:19:35.712Z,101365.44
2022-10-18T15:22:30.940Z,101375.81
2022-10-18T15:25:05.939Z,101366.38
2022-10-18T15:27:36.288Z,101360.09
2022-10-18T15:30:17.061Z,101357.00
2022-10-18T15:32:51.902Z,101343.28
2022-10-18T15:35:32.626Z,101341.28
2022-10-18T15:38:14.379Z,101339.84
2022-10-18T15:40:41.591Z,101341.56
2022-10-18T15:43:23.357Z,101339.50
2022-10-18T15:45:54.096Z,101338.22
2022-10-18T15:48:30.626Z,101334.06
2022-10-18T15:51:09.061Z,101330.66
2022-10-18T15:53:42.705Z,101320.94
2022-10-18T15:56:44.812Z,101341.28
2022-10-18T15:59:38.600Z,101341.19
2022-10-18T16:02:11.774Z,101339.16
2022-10-18T16:04:38.225Z,101338.91
2022-10-18T16:07:04.674Z,101344.53
2022-10-18T16:09:31.116Z,101343.25
2022-10-18T16:11:58.425Z,101350.41
2022-10-18T16:14:26.354Z,101359.97
2022-10-18T16:16:54.962Z,101363.31
2022-10-18T16:19:22.820Z,101361.78
2022-10-18T16:21:50.619Z,101359.25
2022-10-18T16:24:17.345Z,101364.28
2022-10-18T16:26:43.798Z,101354.94
2022-10-18T16:29:13.911Z,101362.75
2022-10-18T16:31:40.503Z,101364.75
2022-10-18T16:34:10.684Z,101365.88
2022-10-18T16:36:38.387Z,101362.13
2022-10-18T16:39:09.379Z,101375.34
2022-10-18T16:41:35.867Z,101375.34
2022-10-18T16:44:02.328Z,101372.00
2022-10-18T16:46:30.749Z,101385.00
2022-10-18T16:48:57.435Z,101382.00
2022-10-18T16:51:24.304Z,101383.59
2022-10-18T16:53:51.108Z,101379.94
2022-10-18T16:56:19.954Z,101388.31
2022-10-18T16:58:47.359Z,101387.63
2022-10-18T17:01:16.458Z,101398.44
2022-10-18T17:03:43.650Z,101391.19
2022-10-18T17:06:22.557Z,101397.56
2022-10-18T17:08:50.837Z,101395.47
2022-10-18T17:11:17.834Z,101392.63
2022-10-18T17:13:44.590Z,101390.69
2022-10-18T17:16:31.759Z,101387.88
2022-10-18T17:19:01.275Z,101399.28
2022-10-18T17:21:28.698Z,101393.09
2022-10-18T17:23:55.284Z,101389.22
2022-10-18T17:26:28.734Z,101383.19
2022-10-18T17:28:59.415Z,101395.41
2022-10-18T17:31:26.008Z,101383.72
2022-10-18T17:33:54.670Z,101401.25
2022-10-18T17:36:21.616Z,101389.59
2022-10-18T17:38:51.936Z,101381.97
2022-10-18T17:41:18.680Z,101397.50
2022-10-18T17:43:47.632Z,101387.75
2022-10-18T17:46:16.318Z,101393.41
2022-10-18T17:48:43.123Z,101378.38
2022-10-18T17:51:10.974Z,101388.75
2022-10-18T17:53:37.637Z,101380.47
2022-10-18T17:56:05.185Z,101375.78
2022-10-18T17:58:32.263Z,101375.47
2022-10-18T18:01:11.702Z,101380.56
2022-10-18T18:03:38.531Z,101379.56
2022-10-18T18:06:33.721Z,101377.91
2022-10-18T18:09:04.872Z,101378.53
2022-10-18T18:11:31.356Z,101375.75
2022-10-18T18:13:58.618Z,101370.81
2022-10-18T18:16:27.588Z,101374.28
2022-10-18T18:18:56.167Z,101383.16
2022-10-18T18:21:23.322Z,101382.91
2022-10-18T18:23:50.570Z,101381.31
2022-10-18T18:26:17.958Z,101378.91
2022-10-18T18:28:44.587Z,101380.09
2022-10-18T18:31:19.682Z,101379.91
2022-10-18T18:33:46.460Z,101378.59
2022-10-18T18:36:13.030Z,101374.94
2022-10-18T18:38:42.370Z,101373.97
2022-10-18T18:41:28.416Z,101373.91
2022-10-18T18:44:01.809Z,101376.66
2022-10-18T18:46:30.076Z,101362.56
2022-10-18T18:48:57.673Z,101359.97
2022-10-18T18:51:27.150Z,101365.25
2022-10-18T18:53:53.706Z,101366.19
2022-10-18T18:56:22.993Z,101359.34
2022-10-18T18:58:49.698Z,101355.28
2022-10-18T19:01:17.387Z,101357.78
2022-10-18T19:03:44.874Z,101351.78
2022-10-18T19:06:15.718Z,101339.56
2022-10-18T19:08:44.918Z,101347.84
2022-10-18T19:11:21.889Z,101339.59
2022-10-18T19:13:49.053Z,101326.09
2022-10-18T19:16:27.463Z,101333.81
2022-10-18T19:19:01.004Z,101341.94
2022-10-18T19:21:29.720Z,101324.13
2022-10-18T19:23:57.519Z,101329.19
2022-10-18T19:26:25.980Z,101339.56
2022-10-18T19:28:52.544Z,101334.91
2022-10-18T19:31:19.371Z,101334.81
2022-10-18T19:33:55.598Z,101334.34
2022-10-18T19:36:25.393Z,101331.84
2022-10-18T19:38:51.999Z,101332.25
2022-10-18T19:41:18.871Z,101337.44
2022-10-18T19:43:45.355Z,101331.41
2022-10-18T19:46:13.150Z,101335.38
2022-10-18T19:48:39.711Z,101342.91
2022-10-18T19:51:09.375Z,101340.53
2022-10-18T19:53:36.501Z,101339.66
2022-10-18T19:56:04.656Z,101336.50
2022-10-18T19:58:31.474Z,101336.16
2022-10-18T20:00:58.157Z,101338.25
2022-10-18T20:03:25.012Z,101337.66
2022-10-18T20:05:56.449Z,101330.50
2022-10-18T20:08:23.762Z,101339.91
2022-10-18T20:10:50.469Z,101327.97
2022-10-18T20:13:17.079Z,101337.03
2022-10-18T20:15:47.738Z,101328.78
2022-10-18T20:18:14.558Z,101327.47
2022-10-18T20:20:44.523Z,101332.28
2022-10-18T20:23:14.403Z,101328.34
2022-10-18T20:25:41.014Z,101327.25
2022-10-18T20:28:07.534Z,101306.88
2022-10-18T20:30:34.119Z,101313.91
2022-10-18T20:33:00.600Z,101311.25
2022-10-18T20:35:27.176Z,101313.38
2022-10-18T20:37:53.629Z,101306.53
2022-10-18T20:40:20.083Z,101305.56
2022-10-18T20:42:46.548Z,101309.63
2022-10-18T20:45:13.094Z,101307.00
2022-10-18T20:47:39.525Z,101298.63
2022-10-18T20:50:06.511Z,101300.16
2022-10-18T20:52:33.008Z,101297.63
2022-10-18T20:54:59.439Z,101307.00
2022-10-18T20:57:25.987Z,101306.34
2022-10-18T20:59:52.429Z,101307.06
2022-10-18T21:02:18.863Z,101300.56
2022-10-18T21:04:45.300Z,101308.59
2022-10-18T21:07:11.752Z,101304.91
2022-10-18T21:09:38.174Z,101294.63
2022-10-18T21:12:04.964Z,101296.38
2022-10-18T21:14:31.449Z,101293.44
2022-10-18T21:16:57.898Z,101298.81
2022-10-18T21:19:26.595Z,101286.06
2022-10-18T21:21:57.343Z,101291.59
2022-10-18T21:24:24.634Z,101286.50
2022-10-18T21:26:51.219Z,101285.84
2022-10-18T21:29:22.002Z,101282.66
2022-10-18T21:31:49.710Z,101283.19
2022-10-18T21:34:17.493Z,101277.91
2022-10-18T21:36:46.243Z,101267.03
2022-10-18T21:39:15.318Z,101269.13
2022-10-18T21:41:45.178Z,101258.19
2022-10-18T21:44:12.094Z,101261.31
2022-10-18T21:46:39.615Z,101266.59
2022-10-18T21:49:07.016Z,101264.47
2022-10-18T21:51:33.493Z,101258.66
2022-10-18T21:53:59.994Z,101246.53
2022-10-18T21:56:28.756Z,101239.94
2022-10-18T21:58:55.450Z,101238.06
2022-10-18T22:01:33.515Z,101235.84
2022-10-18T22:04:01.285Z,101233.31
2022-10-18T22:06:30.237Z,101230.13
2022-10-18T22:08:58.949Z,101229.50
2022-10-18T22:11:29.528Z,101224.53
2022-10-18T22:13:56.458Z,101222.31
2022-10-18T22:16:23.602Z,101231.44
2022-10-18T22:18:50.683Z,101224.50
2022-10-18T22:21:18.744Z,101229.13
2022-10-18T22:23:47.339Z,101213.75
2022-10-18T22:26:20.477Z,101223.75
2022-10-18T22:28:47.086Z,101221.00
2022-10-18T22:31:18.947Z,101223.41
2022-10-18T22:33:45.628Z,101221.56
2022-10-18T22:36:12.856Z,101226.50
2022-10-18T22:38:39.759Z,101221.56
2022-10-18T22:41:07.880Z,101216.28
2022-10-18T22:43:34.712Z,101216.72
2022-10-18T22:46:09.798Z,101212.53
2022-10-18T22:48:36.422Z,101211.88
2022-10-18T22:51:03.494Z,101210.22
2022-10-18T22:53:30.175Z,101195.50
2022-10-18T22:55:56.640Z,101212.44
2022-10-18T22:58:23.402Z,101201.50
2022-10-18T23:00:50.267Z,101199.44
2022-10-18T23:03:17.906Z,101204.94
2022-10-18T23:05:46.048Z,101211.88
2022-10-18T23:08:14.027Z,101215.28
2022-10-18T23:10:41.727Z,101214.59
2022-10-18T23:13:08.861Z,101210.53
2022-10-18T23:15:35.726Z,101217.91
2022-10-18T23:18:02.218Z,101214.06
2022-10-18T23:20:28.672Z,101223.94
2022-10-18T23:22:55.414Z,101227.47
2022-10-18T23:25:21.951Z,101215.91
2022-10-18T23:27:49.524Z,101209.41
2022-10-18T23:30:17.815Z,101218.88
2022-10-18T23:32:44.249Z,101223.81
2022-10-18T23:35:10.713Z,101228.00
2022-10-18T23:37:37.409Z,101230.50
2022-10-18T23:40:04.407Z,101216.00
2022-10-18T23:42:30.835Z,101218.19
2022-10-18T23:44:57.289Z,101218.09
2022-10-18T23:47:23.760Z,101218.09
2022-10-18T23:49:50.215Z,101218.63
2022-10-18T23:52:17.019Z,101215.63
2022-10-18T23:57:10.780Z,101203.09
2022-10-18T23:59:37.279Z,101206.81
